sensor_id;sensor_type;location;lat;lon;timestamp;pressure;altitude;pressure_sealevel;temperature;humidity
46045;BME280;31781;54.094;13.428;2023-03-13T00:01:58;100397.63;;;3.87;76.22
46045;BME280;31781;54.094;13.428;2023-03-13T00:04:01;100388.19;;;3.91;76.55
46045;BME280;31781;54.094;13.428;2023-03-13T00:06:03;100379.09;;;3.92;76.46
46045;BME280;31781;54.094;13.428;2023-03-13T00:08:05;100383.47;;;3.93;75.87
46045;BME280;31781;54.094;13.428;2023-03-13T00:10:07;100391.19;;;3.97;77.47
46045;BME280;31781;54.094;13.428;2023-03-13T00:12:09;100385.44;;;4.00;76.46
46045;BME280;31781;54.094;13.428;2023-03-13T00:14:11;100377.22;;;4.01;76.54
46045;BME280;31781;54.094;13.428;2023-03-13T00:16:15;100378.69;;;4.04;76.93
46045;BME280;31781;54.094;13.428;2023-03-13T00:18:17;100384.75;;;4.06;76.04
46045;BME280;31781;54.094;13.428;2023-03-13T00:20:20;100372.78;;;4.08;77.76
46045;BME280;31781;54.094;13.428;2023-03-13T00:22:22;100372.63;;;4.10;78.23
46045;BME280;31781;54.094;13.428;2023-03-13T00:24:24;100377.66;;;4.13;77.08
46045;BME280;31781;54.094;13.428;2023-03-13T00:26:26;100372.06;;;4.14;77.27
46045;BME280;31781;54.094;13.428;2023-03-13T00:28:30;100377.13;;;4.17;77.83
46045;BME280;31781;54.094;13.428;2023-03-13T00:30:33;100378.63;;;4.20;77.53
46045;BME280;31781;54.094;13.428;2023-03-13T00:32:39;100376.56;;;4.22;77.79
46045;BME280;31781;54.094;13.428;2023-03-13T00:34:41;100378.94;;;4.25;78.09
46045;BME280;31781;54.094;13.428;2023-03-13T00:36:45;100381.44;;;4.26;78.08
46045;BME280;31781;54.094;13.428;2023-03-13T00:38:46;100376.53;;;4.30;78.36
46045;BME280;31781;54.094;13.428;2023-03-13T00:40:49;100372.63;;;4.32;77.98
46045;BME280;31781;54.094;13.428;2023-03-13T00:42:58;100376.84;;;4.35;78.08
46045;BME280;31781;54.094;13.428;2023-03-13T00:45:00;100378.53;;;4.36;79.82
46045;BME280;31781;54.094;13.428;2023-03-13T00:47:02;100377.34;;;4.38;79.28
46045;BME280;31781;54.094;13.428;2023-03-13T00:49:04;100377.81;;;4.42;80.06
46045;BME280;31781;54.094;13.428;2023-03-13T00:51:06;100370.38;;;4.44;80.02
46045;BME280;31781;54.094;13.428;2023-03-13T00:53:10;100370.06;;;4.47;80.34
46045;BME280;31781;54.094;13.428;2023-03-13T00:55:11;100366.16;;;4.50;80.54
46045;BME280;31781;54.094;13.428;2023-03-13T00:57:13;100352.31;;;4.53;80.74
46045;BME280;31781;54.094;13.428;2023-03-13T00:59:15;100351.09;;;4.55;81.03
46045;BME280;31781;54.094;13.428;2023-03-13T01:01:19;100337.28;;;4.58;80.18
46045;BME280;31781;54.094;13.428;2023-03-13T01:03:23;100345.03;;;4.61;81.17
46045;BME280;31781;54.094;13.428;2023-03-13T01:05:25;100343.66;;;4.65;80.82
46045;BME280;31781;54.094;13.428;2023-03-13T01:07:28;100336.03;;;4.69;81.47
46045;BME280;31781;54.094;13.428;2023-03-13T01:09:31;100338.34;;;4.72;80.88
46045;BME280;31781;54.094;13.428;2023-03-13T01:11:34;100335.31;;;4.75;82.32
46045;BME280;31781;54.094;13.428;2023-03-13T01:13:37;100326.84;;;4.78;81.79
46045;BME280;31781;54.094;13.428;2023-03-13T01:15:39;100318.38;;;4.81;81.72
46045;BME280;31781;54.094;13.428;2023-03-13T01:17:43;100322.41;;;4.85;81.79
46045;BME280;31781;54.094;13.428;2023-03-13T01:19:47;100316.84;;;4.86;82.04
46045;BME280;31781;54.094;13.428;2023-03-13T01:21:48;100325.41;;;4.90;81.29
46045;BME280;31781;54.094;13.428;2023-03-13T01:23:51;100320.47;;;4.94;82.08
46045;BME280;31781;54.094;13.428;2023-03-13T01:25:55;100315.72;;;4.96;82.15
46045;BME280;31781;54.094;13.428;2023-03-13T01:27:57;100310.81;;;4.99;81.11
46045;BME280;31781;54.094;13.428;2023-03-13T01:29:59;100312.31;;;5.02;81.29
46045;BME280;31781;54.094;13.428;2023-03-13T01:32:01;100302.16;;;5.04;80.63
46045;BME280;31781;54.094;13.428;2023-03-13T01:34:03;100302.63;;;5.07;80.82
46045;BME280;31781;54.094;13.428;2023-03-13T01:36:07;100298.75;;;5.10;80.67
46045;BME280;31781;54.094;13.428;2023-03-13T01:38:09;100292.31;;;5.11;80.82
46045;BME280;31781;54.094;13.428;2023-03-13T01:40:11;100292.78;;;5.14;81.02
46045;BME280;31781;54.094;13.428;2023-03-13T01:42:15;100296.16;;;5.16;80.97
46045;BME280;31781;54.094;13.428;2023-03-13T01:44:21;100285.16;;;5.18;80.62
46045;BME280;31781;54.094;13.428;2023-03-13T01:46:23;100277.75;;;5.20;81.00
46045;BME280;31781;54.094;13.428;2023-03-13T01:48:33;100286.28;;;5.23;80.12
46045;BME280;31781;54.094;13.428;2023-03-13T01:50:36;100279.88;;;5.24;80.40
46045;BME280;31781;54.094;13.428;2023-03-13T01:52:38;100268.88;;;5.26;79.75
46045;BME280;31781;54.094;13.428;2023-03-13T01:54:42;100279.50;;;5.27;80.27
46045;BME280;31781;54.094;13.428;2023-03-13T01:56:53;100271.22;;;5.29;81.23
46045;BME280;31781;54.094;13.428;2023-03-13T01:58:58;100263.13;;;5.29;81.41
46045;BME280;31781;54.094;13.428;2023-03-13T02:01:01;100263.56;;;5.32;80.95
46045;BME280;31781;54.094;13.428;2023-03-13T02:03:07;100248.22;;;5.33;80.50
46045;BME280;31781;54.094;13.428;2023-03-13T02:05:09;100247.03;;;5.35;80.27
46045;BME280;31781;54.094;13.428;2023-03-13T02:07:17;100246.00;;;5.36;80.18
46045;BME280;31781;54.094;13.428;2023-03-13T02:09:23;100252.91;;;5.39;79.86
46045;BME280;31781;54.094;13.428;2023-03-13T02:11:39;100249.38;;;5.38;80.50
46045;BME280;31781;54.094;13.428;2023-03-13T02:13:44;100245.63;;;5.39;80.01
46045;BME280;31781;54.094;13.428;2023-03-13T02:15:48;100250.84;;;5.41;80.37
46045;BME280;31781;54.094;13.428;2023-03-13T02:17:50;100252.69;;;5.40;80.38
46045;BME280;31781;54.094;13.428;2023-03-13T02:19:52;100247.97;;;5.43;80.38
46045;BME280;31781;54.094;13.428;2023-03-13T02:21:59;100245.06;;;5.44;79.96
46045;BME280;31781;54.094;13.428;2023-03-13T02:24:12;100236.78;;;5.46;78.89
46045;BME280;31781;54.094;13.428;2023-03-13T02:26:16;100234.94;;;5.46;80.74
46045;BME280;31781;54.094;13.428;2023-03-13T02:28:20;100236.59;;;5.47;80.02
46045;BME280;31781;54.094;13.428;2023-03-13T02:30:24;100233.88;;;5.47;79.98
46045;BME280;31781;54.094;13.428;2023-03-13T02:32:28;100237.25;;;5.49;80.38
46045;BME280;31781;54.094;13.428;2023-03-13T02:34:33;100236.22;;;5.50;80.02
46045;BME280;31781;54.094;13.428;2023-03-13T02:36:36;100222.75;;;5.50;79.77
46045;BME280;31781;54.094;13.428;2023-03-13T02:38:43;100220.69;;;5.52;79.07
46045;BME280;31781;54.094;13.428;2023-03-13T02:40:47;100224.22;;;5.53;79.95
46045;BME280;31781;54.094;13.428;2023-03-13T02:42:53;100218.63;;;5.54;78.96
46045;BME280;31781;54.094;13.428;2023-03-13T02:44:56;100215.94;;;5.54;79.38
46045;BME280;31781;54.094;13.428;2023-03-13T02:46:58;100212.19;;;5.55;79.32
46045;BME280;31781;54.094;13.428;2023-03-13T02:49:18;100212.66;;;5.59;79.07
46045;BME280;31781;54.094;13.428;2023-03-13T02:51:24;100201.22;;;5.57;80.22
46045;BME280;31781;54.094;13.428;2023-03-13T02:53:29;100207.25;;;5.59;80.35
46045;BME280;31781;54.094;13.428;2023-03-13T02:55:34;100209.78;;;5.60;80.35
46045;BME280;31781;54.094;13.428;2023-03-13T02:57:38;100199.81;;;5.61;80.17
46045;BME280;31781;54.094;13.428;2023-03-13T02:59:41;100195.28;;;5.61;80.84
46045;BME280;31781;54.094;13.428;2023-03-13T03:01:43;100194.22;;;5.62;80.14
46045;BME280;31781;54.094;13.428;2023-03-13T03:03:44;100203.81;;;5.65;80.39
46045;BME280;31781;54.094;13.428;2023-03-13T03:05:46;100200.91;;;5.66;80.42
46045;BME280;31781;54.094;13.428;2023-03-13T03:07:48;100195.34;;;5.68;81.12
46045;BME280;31781;54.094;13.428;2023-03-13T03:09:50;100189.72;;;5.69;80.59
46045;BME280;31781;54.094;13.428;2023-03-13T03:11:52;100189.53;;;5.71;80.41
46045;BME280;31781;54.094;13.428;2023-03-13T03:13:53;100189.38;;;5.72;80.42
46045;BME280;31781;54.094;13.428;2023-03-13T03:15:56;100184.78;;;5.73;81.39
46045;BME280;31781;54.094;13.428;2023-03-13T03:17:58;100176.69;;;5.73;81.05
46045;BME280;31781;54.094;13.428;2023-03-13T03:20:00;100176.31;;;5.76;81.22
46045;BME280;31781;54.094;13.428;2023-03-13T03:22:01;100172.56;;;5.77;81.10
46045;BME280;31781;54.094;13.428;2023-03-13T03:24:04;100167.84;;;5.79;80.60
46045;BME280;31781;54.094;13.428;2023-03-13T03:26:06;100166.81;;;5.80;81.93
46045;BME280;31781;54.094;13.428;2023-03-13T03:28:08;100171.16;;;5.81;81.41
46045;BME280;31781;54.094;13.428;2023-03-13T03:30:11;100164.75;;;5.82;80.93
46045;BME280;31781;54.094;13.428;2023-03-13T03:32:14;100159.16;;;5.83;81.61
46045;BME280;31781;54.094;13.428;2023-03-13T03:34:16;100156.25;;;5.85;80.92
46045;BME280;31781;54.094;13.428;2023-03-13T03:36:20;100154.25;;;5.87;81.02
46045;BME280;31781;54.094;13.428;2023-03-13T03:38:22;100141.38;;;5.89;80.91
46045;BME280;31781;54.094;13.428;2023-03-13T03:40:24;100138.69;;;5.89;82.03
46045;BME280;31781;54.094;13.428;2023-03-13T03:42:25;100149.09;;;5.92;81.61
46045;BME280;31781;54.094;13.428;2023-03-13T03:44:27;100139.13;;;5.93;81.05
46045;BME280;31781;54.094;13.428;2023-03-13T03:46:29;100147.66;;;5.96;80.71
46045;BME280;31781;54.094;13.428;2023-03-13T03:48:32;100133.34;;;5.96;81.55
46045;BME280;31781;54.094;13.428;2023-03-13T03:50:34;100129.22;;;6.00;81.17
46045;BME280;31781;54.094;13.428;2023-03-13T03:52:36;100125.69;;;5.99;81.29
46045;BME280;31781;54.094;13.428;2023-03-13T03:54:38;100122.63;;;6.02;80.82
46045;BME280;31781;54.094;13.428;2023-03-13T03:56:40;100113.28;;;6.05;81.54
46045;BME280;31781;54.094;13.428;2023-03-13T03:58:42;100111.41;;;6.05;80.94
46045;BME280;31781;54.094;13.428;2023-03-13T04:00:44;100114.75;;;6.07;81.76
46045;BME280;31781;54.094;13.428;2023-03-13T04:02:46;100114.56;;;6.09;82.12
46045;BME280;31781;54.094;13.428;2023-03-13T04:04:49;100110.63;;;6.11;82.04
46045;BME280;31781;54.094;13.428;2023-03-13T04:06:51;100105.88;;;6.13;81.68
46045;BME280;31781;54.094;13.428;2023-03-13T04:08:53;100100.47;;;6.13;81.31
46045;BME280;31781;54.094;13.428;2023-03-13T04:10:54;100101.09;;;6.15;81.63
46045;BME280;31781;54.094;13.428;2023-03-13T04:12:56;100093.63;;;6.17;82.19
46045;BME280;31781;54.094;13.428;2023-03-13T04:14:58;100095.97;;;6.20;81.87
46045;BME280;31781;54.094;13.428;2023-03-13T04:17:00;100081.41;;;6.21;81.25
46045;BME280;31781;54.094;13.428;2023-03-13T04:19:01;100079.34;;;6.23;80.80
46045;BME280;31781;54.094;13.428;2023-03-13T04:21:05;100090.78;;;6.25;80.92
46045;BME280;31781;54.094;13.428;2023-03-13T04:23:07;100081.66;;;6.26;81.21
46045;BME280;31781;54.094;13.428;2023-03-13T04:25:09;100069.81;;;6.27;82.23
46045;BME280;31781;54.094;13.428;2023-03-13T04:27:11;100074.16;;;6.28;81.47
46045;BME280;31781;54.094;13.428;2023-03-13T04:29:13;100067.56;;;6.31;81.29
46045;BME280;31781;54.094;13.428;2023-03-13T04:31:15;100065.69;;;6.31;82.27
46045;BME280;31781;54.094;13.428;2023-03-13T04:33:16;100053.84;;;6.32;81.85
46045;BME280;31781;54.094;13.428;2023-03-13T04:35:18;100058.03;;;6.35;81.88
46045;BME280;31781;54.094;13.428;2023-03-13T04:37:22;100056.16;;;6.35;82.21
46045;BME280;31781;54.094;13.428;2023-03-13T04:39:24;100047.00;;;6.36;81.54
46045;BME280;31781;54.094;13.428;2023-03-13T04:41:26;100042.25;;;6.39;81.04
46045;BME280;31781;54.094;13.428;2023-03-13T04:43:28;100041.19;;;6.40;81.99
46045;BME280;31781;54.094;13.428;2023-03-13T04:45:29;100040.38;;;6.39;82.09
46045;BME280;31781;54.094;13.428;2023-03-13T04:47:31;100030.19;;;6.41;81.59
46045;BME280;31781;54.094;13.428;2023-03-13T04:49:33;100025.63;;;6.42;81.25
46045;BME280;31781;54.094;13.428;2023-03-13T04:51:35;100012.97;;;6.42;82.42
46045;BME280;31781;54.094;13.428;2023-03-13T04:53:38;100018.38;;;6.42;82.00
46045;BME280;31781;54.094;13.428;2023-03-13T04:55:39;100009.84;;;6.45;82.15
46045;BME280;31781;54.094;13.428;2023-03-13T04:57:42;100000.72;;;6.46;82.29
46045;BME280;31781;54.094;13.428;2023-03-13T04:59:43;100001.56;;;6.47;82.44
46045;BME280;31781;54.094;13.428;2023-03-13T05:01:45;99987.84;;;6.48;83.37
46045;BME280;31781;54.094;13.428;2023-03-13T05:03:47;99975.16;;;6.49;82.87
46045;BME280;31781;54.094;13.428;2023-03-13T05:05:49;99974.97;;;6.50;82.50
46045;BME280;31781;54.094;13.428;2023-03-13T05:07:51;99974.75;;;6.52;82.49
46045;BME280;31781;54.094;13.428;2023-03-13T05:09:54;99963.75;;;6.53;82.20
46045;BME280;31781;54.094;13.428;2023-03-13T05:11:55;99968.94;;;6.55;82.35
46045;BME280;31781;54.094;13.428;2023-03-13T05:13:58;99955.22;;;6.56;82.67
46045;BME280;31781;54.094;13.428;2023-03-13T05:16:00;99943.41;;;6.57;82.59
46045;BME280;31781;54.094;13.428;2023-03-13T05:18:03;99947.56;;;6.60;82.05
46045;BME280;31781;54.094;13.428;2023-03-13T05:20:06;99942.75;;;6.62;82.76
46045;BME280;31781;54.094;13.428;2023-03-13T05:22:08;99928.22;;;6.63;83.09
46045;BME280;31781;54.094;13.428;2023-03-13T05:24:10;99924.50;;;6.64;82.62
46045;BME280;31781;54.094;13.428;2023-03-13T05:26:13;99927.81;;;6.66;83.26
46045;BME280;31781;54.094;13.428;2023-03-13T05:28:15;99920.53;;;6.66;83.29
46045;BME280;31781;54.094;13.428;2023-03-13T05:30:17;99901.19;;;6.69;84.16
46045;BME280;31781;54.094;13.428;2023-03-13T05:32:18;99906.41;;;6.71;83.33
46045;BME280;31781;54.094;13.428;2023-03-13T05:34:20;99902.69;;;6.72;83.89
46045;BME280;31781;54.094;13.428;2023-03-13T05:36:22;99891.44;;;6.75;83.61
46045;BME280;31781;54.094;13.428;2023-03-13T05:38:24;99895.84;;;6.76;84.10
46045;BME280;31781;54.094;13.428;2023-03-13T05:40:26;99887.50;;;6.77;84.13
46045;BME280;31781;54.094;13.428;2023-03-13T05:42:29;99888.16;;;6.79;83.45
46045;BME280;31781;54.094;13.428;2023-03-13T05:44:31;99883.34;;;6.81;83.42
46045;BME280;31781;54.094;13.428;2023-03-13T05:46:33;99886.88;;;6.82;83.65
46045;BME280;31781;54.094;13.428;2023-03-13T05:48:35;99880.22;;;6.84;83.45
46045;BME280;31781;54.094;13.428;2023-03-13T05:50:37;99874.63;;;6.86;83.30
46045;BME280;31781;54.094;13.428;2023-03-13T05:52:40;99863.59;;;6.88;83.81
46045;BME280;31781;54.094;13.428;2023-03-13T05:54:41;99863.19;;;6.91;83.08
46045;BME280;31781;54.094;13.428;2023-03-13T05:56:43;99848.63;;;6.92;83.67
46045;BME280;31781;54.094;13.428;2023-03-13T05:58:47;99844.88;;;6.93;83.07
46045;BME280;31781;54.094;13.428;2023-03-13T06:00:49;99845.53;;;6.95;82.98
46045;BME280;31781;54.094;13.428;2023-03-13T06:02:50;99845.28;;;6.96;82.45
46045;BME280;31781;54.094;13.428;2023-03-13T06:04:52;99837.81;;;6.98;83.00
46045;BME280;31781;54.094;13.428;2023-03-13T06:06:54;99835.94;;;6.99;82.57
46045;BME280;31781;54.094;13.428;2023-03-13T06:08:56;99835.72;;;7.00;82.82
46045;BME280;31781;54.094;13.428;2023-03-13T06:10:58;99825.75;;;7.01;82.92
46045;BME280;31781;54.094;13.428;2023-03-13T06:13:00;99826.34;;;7.03;83.01
46045;BME280;31781;54.094;13.428;2023-03-13T06:15:21;99825.31;;;7.04;82.29
46045;BME280;31781;54.094;13.428;2023-03-13T06:17:23;99825.13;;;7.05;82.78
46045;BME280;31781;54.094;13.428;2023-03-13T06:19:25;99807.84;;;7.06;83.54
46045;BME280;31781;54.094;13.428;2023-03-13T06:21:26;99808.69;;;7.07;83.35
46045;BME280;31781;54.094;13.428;2023-03-13T06:23:28;99812.03;;;7.09;83.30
46045;BME280;31781;54.094;13.428;2023-03-13T06:25:30;99802.03;;;7.09;83.27
46045;BME280;31781;54.094;13.428;2023-03-13T06:27:32;99806.19;;;7.12;83.43
46045;BME280;31781;54.094;13.428;2023-03-13T06:29:33;99800.56;;;7.13;83.44
46045;BME280;31781;54.094;13.428;2023-03-13T06:31:36;99791.63;;;7.13;83.76
46045;BME280;31781;54.094;13.428;2023-03-13T06:33:38;99775.16;;;7.14;83.38
46045;BME280;31781;54.094;13.428;2023-03-13T06:35:41;99779.53;;;7.15;83.27
46045;BME280;31781;54.094;13.428;2023-03-13T06:37:57;99770.16;;;7.18;83.89
46045;BME280;31781;54.094;13.428;2023-03-13T06:39:58;99769.13;;;7.19;83.07
46045;BME280;31781;54.094;13.428;2023-03-13T06:42:00;99764.56;;;7.19;82.89
46045;BME280;31781;54.094;13.428;2023-03-13T06:44:02;99760.59;;;7.22;82.78
46045;BME280;31781;54.094;13.428;2023-03-13T06:46:04;99756.63;;;7.24;83.17
46045;BME280;31781;54.094;13.428;2023-03-13T06:48:07;99759.31;;;7.24;83.98
46045;BME280;31781;54.094;13.428;2023-03-13T06:50:10;99761.00;;;7.25;83.89
46045;BME280;31781;54.094;13.428;2023-03-13T06:52:12;99752.69;;;7.27;83.71
46045;BME280;31781;54.094;13.428;2023-03-13T06:54:13;99748.91;;;7.28;83.69
46045;BME280;31781;54.094;13.428;2023-03-13T06:56:15;99743.09;;;7.31;83.78
46045;BME280;31781;54.094;13.428;2023-03-13T06:58:17;99729.56;;;7.31;83.57
46045;BME280;31781;54.094;13.428;2023-03-13T07:00:33;99743.72;;;7.33;83.45
46045;BME280;31781;54.094;13.428;2023-03-13T07:02:35;99736.22;;;7.35;82.76
46045;BME280;31781;54.094;13.428;2023-03-13T07:04:38;99736.84;;;7.37;82.87
46045;BME280;31781;54.094;13.428;2023-03-13T07:06:39;99722.25;;;7.38;83.04
46045;BME280;31781;54.094;13.428;2023-03-13T07:08:41;99717.69;;;7.39;83.42
46045;BME280;31781;54.094;13.428;2023-03-13T07:10:43;99720.16;;;7.40;82.74
46045;BME280;31781;54.094;13.428;2023-03-13T07:12:45;99706.44;;;7.42;83.10
46045;BME280;31781;54.094;13.428;2023-03-13T07:14:47;99698.91;;;7.44;82.95
46045;BME280;31781;54.094;13.428;2023-03-13T07:16:49;99686.22;;;7.44;82.77
46045;BME280;31781;54.094;13.428;2023-03-13T07:18:51;99700.38;;;7.46;83.40
46045;BME280;31781;54.094;13.428;2023-03-13T07:20:55;99695.78;;;7.47;83.98
46045;BME280;31781;54.094;13.428;2023-03-13T07:22:57;99699.31;;;7.47;83.28
46045;BME280;31781;54.094;13.428;2023-03-13T07:24:59;99703.50;;;7.50;83.42
46045;BME280;31781;54.094;13.428;2023-03-13T07:27:01;99690.34;;;7.53;83.60
46045;BME280;31781;54.094;13.428;2023-03-13T07:29:08;99692.00;;;7.54;83.73
46045;BME280;31781;54.094;13.428;2023-03-13T07:31:11;99684.50;;;7.56;83.78
46045;BME280;31781;54.094;13.428;2023-03-13T07:33:14;99677.22;;;7.57;83.14
46045;BME280;31781;54.094;13.428;2023-03-13T07:35:15;99673.44;;;7.58;83.75
46045;BME280;31781;54.094;13.428;2023-03-13T07:37:19;99667.00;;;7.59;83.39
46045;BME280;31781;54.094;13.428;2023-03-13T07:39:20;99669.50;;;7.60;83.66
46045;BME280;31781;54.094;13.428;2023-03-13T07:41:22;99662.22;;;7.61;83.13
46045;BME280;31781;54.094;13.428;2023-03-13T07:43:25;99659.28;;;7.62;83.88
46045;BME280;31781;54.094;13.428;2023-03-13T07:45:26;99655.53;;;7.63;83.59
46045;BME280;31781;54.094;13.428;2023-03-13T07:47:29;99641.78;;;7.65;82.98
46045;BME280;31781;54.094;13.428;2023-03-13T07:49:30;99647.78;;;7.67;83.01
46045;BME280;31781;54.094;13.428;2023-03-13T07:51:32;99634.06;;;7.68;83.99
46045;BME280;31781;54.094;13.428;2023-03-13T07:53:46;99633.81;;;7.70;83.58
46045;BME280;31781;54.094;13.428;2023-03-13T07:55:52;99637.16;;;7.72;83.43
46045;BME280;31781;54.094;13.428;2023-03-13T07:57:54;99629.03;;;7.72;84.83
46045;BME280;31781;54.094;13.428;2023-03-13T07:59:56;99621.50;;;7.74;84.22
46045;BME280;31781;54.094;13.428;2023-03-13T08:01:57;99615.91;;;7.75;84.95
46045;BME280;31781;54.094;13.428;2023-03-13T08:03:59;99612.13;;;7.76;84.44
46045;BME280;31781;54.094;13.428;2023-03-13T08:06:03;99599.22;;;7.78;84.62
46045;BME280;31781;54.094;13.428;2023-03-13T08:08:06;99594.63;;;7.79;85.00
46045;BME280;31781;54.094;13.428;2023-03-13T08:10:10;99586.25;;;7.80;84.92
46045;BME280;31781;54.094;13.428;2023-03-13T08:12:14;99578.53;;;7.84;84.83
46045;BME280;31781;54.094;13.428;2023-03-13T08:14:16;99570.19;;;7.86;84.56
46045;BME280;31781;54.094;13.428;2023-03-13T08:16:20;99577.28;;;7.87;84.72
46045;BME280;31781;54.094;13.428;2023-03-13T08:18:22;99563.50;;;7.88;85.44
46045;BME280;31781;54.094;13.428;2023-03-13T08:20:24;99555.75;;;7.92;85.90
46045;BME280;31781;54.094;13.428;2023-03-13T08:22:27;99543.06;;;7.92;84.99
46045;BME280;31781;54.094;13.428;2023-03-13T08:24:29;99535.31;;;7.96;84.73
46045;BME280;31781;54.094;13.428;2023-03-13T08:26:33;99535.94;;;7.98;84.80
46045;BME280;31781;54.094;13.428;2023-03-13T08:28:36;99534.03;;;7.98;85.52
46045;BME280;31781;54.094;13.428;2023-03-13T08:30:38;99523.00;;;8.00;84.67
46045;BME280;31781;54.094;13.428;2023-03-13T08:32:40;99524.41;;;8.02;85.53
46045;BME280;31781;54.094;13.428;2023-03-13T08:34:42;99519.00;;;8.02;85.10
46045;BME280;31781;54.094;13.428;2023-03-13T08:36:44;99515.03;;;8.05;84.42
46045;BME280;31781;54.094;13.428;2023-03-13T08:38:46;99496.91;;;8.05;85.27
46045;BME280;31781;54.094;13.428;2023-03-13T08:40:48;99491.88;;;8.09;84.01
46045;BME280;31781;54.094;13.428;2023-03-13T08:42:52;99488.09;;;8.10;85.00
46045;BME280;31781;54.094;13.428;2023-03-13T08:44:54;99476.22;;;8.11;84.82
46045;BME280;31781;54.094;13.428;2023-03-13T08:46:56;99469.75;;;8.12;84.56
46045;BME280;31781;54.094;13.428;2023-03-13T08:48:58;99459.50;;;8.14;84.97
46045;BME280;31781;54.094;13.428;2023-03-13T08:51:01;99465.75;;;8.14;85.22
46045;BME280;31781;54.094;13.428;2023-03-13T08:53:03;99453.41;;;8.18;84.83
46045;BME280;31781;54.094;13.428;2023-03-13T08:55:06;99461.34;;;8.20;85.31
46045;BME280;31781;54.094;13.428;2023-03-13T08:57:08;99455.66;;;8.21;85.76
46045;BME280;31781;54.094;13.428;2023-03-13T08:59:11;99443.78;;;8.22;85.18
46045;BME280;31781;54.094;13.428;2023-03-13T09:01:13;99457.72;;;8.26;85.87
46045;BME280;31781;54.094;13.428;2023-03-13T09:03:15;99442.03;;;8.28;86.67
46045;BME280;31781;54.094;13.428;2023-03-13T09:05:17;99435.41;;;8.30;86.67
46045;BME280;31781;54.094;13.428;2023-03-13T09:07:19;99443.28;;;8.32;85.93
46045;BME280;31781;54.094;13.428;2023-03-13T09:09:20;99440.94;;;8.36;86.52
46045;BME280;31781;54.094;13.428;2023-03-13T09:11:25;99438.84;;;8.38;86.84
46045;BME280;31781;54.094;13.428;2023-03-13T09:13:29;99435.69;;;8.41;85.95
46045;BME280;31781;54.094;13.428;2023-03-13T09:15:33;99424.63;;;8.42;86.24
46045;BME280;31781;54.094;13.428;2023-03-13T09:17:34;99426.88;;;8.45;86.57
46045;BME280;31781;54.094;13.428;2023-03-13T09:19:36;99420.16;;;8.48;85.92
46045;BME280;31781;54.094;13.428;2023-03-13T09:21:41;99410.75;;;8.50;86.06
46045;BME280;31781;54.094;13.428;2023-03-13T09:23:43;99413.81;;;8.54;85.41
46045;BME280;31781;54.094;13.428;2023-03-13T09:25:45;99423.41;;;8.56;85.66
46045;BME280;31781;54.094;13.428;2023-03-13T09:27:47;99424.81;;;8.59;86.38
46045;BME280;31781;54.094;13.428;2023-03-13T09:29:49;99412.69;;;8.61;86.39
46045;BME280;31781;54.094;13.428;2023-03-13T09:31:52;99411.63;;;8.62;86.28
46045;BME280;31781;54.094;13.428;2023-03-13T09:33:54;99397.88;;;8.64;86.13
46045;BME280;31781;54.094;13.428;2023-03-13T09:35:56;99396.34;;;8.68;86.42
46045;BME280;31781;54.094;13.428;2023-03-13T09:37:58;99396.72;;;8.71;86.84
46045;BME280;31781;54.094;13.428;2023-03-13T09:40:00;99394.59;;;8.73;87.12
46045;BME280;31781;54.094;13.428;2023-03-13T09:42:08;99388.69;;;8.76;86.24
46045;BME280;31781;54.094;13.428;2023-03-13T09:44:16;99383.88;;;8.78;86.25
46045;BME280;31781;54.094;13.428;2023-03-13T09:46:24;99377.78;;;8.83;86.19
46045;BME280;31781;54.094;13.428;2023-03-13T09:48:31;99371.06;;;8.86;86.41
46045;BME280;31781;54.094;13.428;2023-03-13T09:50:35;99372.47;;;8.88;86.35
46045;BME280;31781;54.094;13.428;2023-03-13T09:52:41;99364.13;;;8.90;86.86
46045;BME280;31781;54.094;13.428;2023-03-13T09:54:47;99364.47;;;8.93;86.45
46045;BME280;31781;54.094;13.428;2023-03-13T09:56:53;99354.44;;;8.94;88.26
46045;BME280;31781;54.094;13.428;2023-03-13T09:59:00;99352.09;;;8.97;87.02
46045;BME280;31781;54.094;13.428;2023-03-13T10:01:08;99347.03;;;9.01;86.68
46045;BME280;31781;54.094;13.428;2023-03-13T10:03:16;99338.44;;;9.04;86.57
46045;BME280;31781;54.094;13.428;2023-03-13T10:05:23;99347.97;;;9.06;86.99
46045;BME280;31781;54.094;13.428;2023-03-13T10:07:26;99341.50;;;9.07;86.72
46045;BME280;31781;54.094;13.428;2023-03-13T10:09:29;99347.50;;;9.09;87.43
46045;BME280;31781;54.094;13.428;2023-03-13T10:11:37;99332.41;;;9.13;87.70
46045;BME280;31781;54.094;13.428;2023-03-13T10:13:46;99336.56;;;9.16;88.29
46045;BME280;31781;54.094;13.428;2023-03-13T10:15:54;99321.47;;;9.20;88.57
46045;BME280;31781;54.094;13.428;2023-03-13T10:17:58;99334.56;;;9.23;87.78
46045;BME280;31781;54.094;13.428;2023-03-13T10:20:01;99323.25;;;9.26;87.53
46045;BME280;31781;54.094;13.428;2023-03-13T10:22:14;99316.03;;;9.32;87.00
46045;BME280;31781;54.094;13.428;2023-03-13T10:24:29;99313.91;;;9.34;86.82
46045;BME280;31781;54.094;13.428;2023-03-13T10:26:33;99318.66;;;9.38;87.88
46045;BME280;31781;54.094;13.428;2023-03-13T10:28:36;99327.38;;;9.40;87.91
46045;BME280;31781;54.094;13.428;2023-03-13T10:30:40;99313.31;;;9.43;88.01
46045;BME280;31781;54.094;13.428;2023-03-13T10:32:44;99303.63;;;9.47;88.18
46045;BME280;31781;54.094;13.428;2023-03-13T10:34:51;99307.75;;;9.50;87.53
46045;BME280;31781;54.094;13.428;2023-03-13T10:36:57;99306.47;;;9.52;87.17
46045;BME280;31781;54.094;13.428;2023-03-13T10:39:07;99304.69;;;9.58;87.37
46045;BME280;31781;54.094;13.428;2023-03-13T10:41:19;99314.28;;;9.60;86.83
46045;BME280;31781;54.094;13.428;2023-03-13T10:43:26;99301.50;;;9.61;87.66
46045;BME280;31781;54.094;13.428;2023-03-13T10:45:32;99297.50;;;9.63;87.67
46045;BME280;31781;54.094;13.428;2023-03-13T10:47:34;99307.88;;;9.66;87.85
46045;BME280;31781;54.094;13.428;2023-03-13T10:49:46;99301.97;;;9.69;88.07